createdAt,value
2022-09-25T00:01:33.515Z,2.90
2022-09-25T00:04:02.482Z,4.90
2022-09-25T00:06:31.422Z,7.87
2022-09-25T00:09:00.434Z,10.80
2022-09-25T00:11:33.761Z,18.07
2022-09-25T00:14:03.041Z,15.47
2022-09-25T00:16:33.591Z,14.67
2022-09-25T00:19:21.598Z,7.40
2022-09-25T00:21:54.474Z,3.90
2022-09-25T00:24:23.150Z,10.80
2022-09-25T00:26:51.960Z,31.00
2022-09-25T00:29:21.586Z,4.33
2022-09-25T00:31:50.064Z,6.30
2022-09-25T00:34:18.675Z,10.93
2022-09-25T00:36:47.033Z,5.10
2022-09-25T00:39:15.426Z,4.60
2022-09-25T00:41:44.094Z,9.03
2022-09-25T00:44:49.622Z,4.07
2022-09-25T00:47:24.742Z,5.40
2022-09-25T00:49:54.406Z,4.10
2022-09-25T00:52:25.111Z,4.17
2022-09-25T00:55:04.169Z,3.50
2022-09-25T00:57:36.657Z,4.30
2022-09-25T01:00:12.522Z,9.30
2022-09-25T01:02:48.230Z,3.43
2022-09-25T01:05:21.856Z,3.90
2022-09-25T01:07:52.675Z,7.37
2022-09-25T01:10:22.185Z,3.23
2022-09-25T01:12:52.989Z,4.97
2022-09-25T01:15:24.488Z,4.20
2022-09-25T01:17:55.700Z,8.87
2022-09-25T01:20:27.251Z,5.10
2022-09-25T01:23:04.579Z,5.10
2022-09-25T01:26:01.467Z,7.33
2022-09-25T01:28:54.550Z,4.57
2022-09-25T01:31:37.190Z,9.10
2022-09-25T01:34:30.812Z,4.07
2022-09-25T01:37:11.366Z,6.23
2022-09-25T01:39:46.788Z,6.23
2022-09-25T01:42:21.755Z,7.13
2022-09-25T01:45:05.006Z,3.77
2022-09-25T01:47:39.506Z,5.77
2022-09-25T01:50:45.845Z,7.27
2022-09-25T01:53:22.667Z,4.90
2022-09-25T01:56:02.735Z,4.27
2022-09-25T01:58:33.890Z,4.97
2022-09-25T02:01:17.956Z,6.10
2022-09-25T02:03:57.230Z,4.70
2022-09-25T02:06:26.986Z,5.60
2022-09-25T02:09:40.271Z,5.80
2022-09-25T02:12:20.025Z,3.50
2022-09-25T02:15:13.259Z,4.33
2022-09-25T02:18:19.714Z,6.13
2022-09-25T02:21:32.576Z,7.33
2022-09-25T02:24:41.742Z,3.83
2022-09-25T02:27:10.412Z,3.30
2022-09-25T02:29:39.590Z,4.93
2022-09-25T02:32:11.454Z,8.00
2022-09-25T02:34:40.908Z,4.73
2022-09-25T02:37:15.371Z,4.03
2022-09-25T02:39:47.127Z,6.67
2022-09-25T02:42:21.379Z,4.43
2022-09-25T02:45:23.732Z,4.17
2022-09-25T02:48:04.502Z,4.20
2022-09-25T02:50:59.265Z,5.23
2022-09-25T02:53:39.831Z,6.87
2022-09-25T02:56:23.133Z,8.57
2022-09-25T02:59:02.493Z,4.67
2022-09-25T03:01:34.648Z,4.60
2022-09-25T03:04:04.813Z,6.40
2022-09-25T03:06:33.315Z,10.17
2022-09-25T03:09:03.545Z,7.20
2022-09-25T03:11:31.966Z,6.10
2022-09-25T03:14:03.267Z,4.57
2022-09-25T03:16:49.825Z,4.60
2022-09-25T03:19:20.523Z,4.27
2022-09-25T03:21:49.646Z,4.40
2022-09-25T03:24:18.635Z,3.30
2022-09-25T03:26:47.161Z,4.80
2022-09-25T03:29:18.176Z,3.60
2022-09-25T03:31:47.085Z,3.00
2022-09-25T03:34:17.239Z,4.60
2022-09-25T03:36:48.151Z,7.53
2022-09-25T03:39:18.612Z,5.57
2022-09-25T03:41:48.582Z,5.17
2022-09-25T03:44:17.180Z,6.00
2022-09-25T03:46:45.569Z,6.90
2022-09-25T03:49:14.718Z,6.53
2022-09-25T03:51:43.156Z,4.27
2022-09-25T03:54:11.618Z,11.73
2022-09-25T03:56:40.232Z,11.93
2022-09-25T03:59:08.714Z,6.70
2022-09-25T04:01:37.811Z,6.63
2022-09-25T04:04:06.330Z,7.97
2022-09-25T04:06:34.866Z,6.60
2022-09-25T04:09:03.224Z,6.33
2022-09-25T04:11:32.801Z,4.93
2022-09-25T04:14:01.249Z,6.40
2022-09-25T04:16:30.239Z,5.30
2022-09-25T04:18:59.526Z,7.50
2022-09-25T04:21:28.073Z,7.03
2022-09-25T04:24:14.595Z,4.77
2022-09-25T04:26:43.060Z,4.90
2022-09-25T04:29:11.426Z,6.00
2022-09-25T04:31:39.937Z,5.13
2022-09-25T04:34:08.467Z,5.90
2022-09-25T04:36:36.813Z,4.60
2022-09-25T04:39:05.204Z,4.63
2022-09-25T04:41:34.070Z,4.43
2022-09-25T04:44:06.511Z,4.07
2022-09-25T04:46:35.065Z,5.47
2022-09-25T04:49:03.514Z,9.47
2022-09-25T04:51:31.876Z,4.37
2022-09-25T04:54:00.780Z,5.03
2022-09-25T04:56:29.139Z,5.20
2022-09-25T04:58:57.514Z,4.40
2022-09-25T05:01:25.997Z,4.60
2022-09-25T05:03:55.591Z,8.03
2022-09-25T05:06:24.514Z,7.73
2022-09-25T05:08:53.462Z,5.40
2022-09-25T05:11:22.127Z,4.23
2022-09-25T05:13:54.347Z,7.40
2022-09-25T05:16:22.985Z,4.77
2022-09-25T05:18:51.359Z,5.80
2022-09-25T05:21:19.799Z,9.60
2022-09-25T05:23:48.212Z,5.27
2022-09-25T05:26:16.578Z,6.33
2022-09-25T05:28:44.966Z,5.07
2022-09-25T05:31:13.667Z,8.20
2022-09-25T05:33:42.142Z,4.53
2022-09-25T05:36:11.658Z,4.73
2022-09-25T05:38:41.612Z,4.70
2022-09-25T05:41:11.290Z,4.83
2022-09-25T05:43:42.377Z,7.70
2022-09-25T05:46:11.979Z,4.80
2022-09-25T05:48:40.652Z,6.23
2022-09-25T05:51:09.428Z,4.33
2022-09-25T05:53:38.917Z,6.13
2022-09-25T05:56:07.583Z,4.80
2022-09-25T05:58:37.453Z,7.33
2022-09-25T06:01:07.594Z,5.20
2022-09-25T06:03:36.882Z,5.20
2022-09-25T06:06:05.861Z,4.50
2022-09-25T06:08:36.386Z,5.77
2022-09-25T06:11:06.290Z,7.70
2022-09-25T06:13:35.422Z,6.40
2022-09-25T06:16:04.606Z,6.10
2022-09-25T06:18:34.797Z,5.20
2022-09-25T06:21:05.792Z,7.13
2022-09-25T06:23:34.257Z,6.77
2022-09-25T06:26:07.760Z,4.57
2022-09-25T06:28:36.403Z,4.83
2022-09-25T06:31:06.034Z,5.40
2022-09-25T06:33:34.823Z,4.30
2022-09-25T06:36:03.425Z,5.10
2022-09-25T06:38:34.096Z,6.53
2022-09-25T06:41:02.775Z,4.83
2022-09-25T06:43:32.128Z,6.67
2022-09-25T06:46:04.198Z,6.13
2022-09-25T06:48:33.918Z,4.73
2022-09-25T06:51:02.611Z,5.10
2022-09-25T06:53:31.350Z,5.43
2022-09-25T06:56:03.593Z,6.57
2022-09-25T06:58:32.338Z,8.37
2022-09-25T07:01:00.774Z,8.70
2022-09-25T07:03:48.094Z,5.27
2022-09-25T07:06:26.943Z,5.80
2022-09-25T07:08:57.976Z,5.80
2022-09-25T07:11:35.416Z,6.50
2022-09-25T07:14:03.889Z,7.87
2022-09-25T07:16:33.368Z,7.17
2022-09-25T07:19:03.589Z,6.47
2022-09-25T07:21:33.117Z,7.67
2022-09-25T07:24:01.493Z,8.07
2022-09-25T07:26:35.631Z,6.40
2022-09-25T07:29:09.817Z,5.60
2022-09-25T07:31:40.963Z,5.30
2022-09-25T07:34:12.440Z,5.70
2022-09-25T07:36:43.503Z,6.97
2022-09-25T07:39:17.548Z,6.50
2022-09-25T07:41:47.280Z,8.17
2022-09-25T07:44:37.435Z,8.93
2022-09-25T07:47:04.927Z,6.30
2022-09-25T07:49:33.414Z,7.10
2022-09-25T07:52:06.767Z,7.50
2022-09-25T07:54:38.555Z,7.30
2022-09-25T07:57:06.983Z,7.53
2022-09-25T07:59:35.332Z,6.17
2022-09-25T08:02:04.688Z,6.70
2022-09-25T08:04:33.166Z,6.30
2022-09-25T08:07:02.058Z,6.60
2022-09-25T08:09:30.402Z,6.20
2022-09-25T08:11:58.850Z,6.00
2022-09-25T08:14:27.336Z,17.87
2022-09-25T08:16:56.739Z,6.90
2022-09-25T08:19:25.226Z,6.27
2022-09-25T08:21:53.624Z,6.53
2022-09-25T08:24:22.303Z,7.40
2022-09-25T08:26:51.103Z,6.50
2022-09-25T08:29:19.476Z,6.03
2022-09-25T08:31:48.648Z,6.47
2022-09-25T08:34:39.442Z,5.00
2022-09-25T08:37:08.507Z,8.17
2022-09-25T08:39:37.043Z,5.60
2022-09-25T08:42:07.356Z,5.87
2022-09-25T08:45:21.047Z,5.80
2022-09-25T08:48:12.302Z,5.87
2022-09-25T08:50:40.873Z,7.23
2022-09-25T08:53:27.195Z,4.90
2022-09-25T08:56:14.066Z,8.07
2022-09-25T08:59:18.122Z,6.00
2022-09-25T09:01:54.286Z,5.20
2022-09-25T09:04:38.131Z,5.47
2022-09-25T09:07:36.054Z,6.07
2022-09-25T09:10:18.827Z,4.87
2022-09-25T09:13:13.123Z,4.77
2022-09-25T09:15:50.033Z,6.20
2022-09-25T09:18:25.975Z,4.93
2022-09-25T09:20:56.495Z,6.50
2022-09-25T09:23:34.110Z,7.63
2022-09-25T09:26:20.063Z,4.53
2022-09-25T09:29:14.377Z,5.10
2022-09-25T09:32:03.951Z,5.47
2022-09-25T09:35:07.320Z,5.53
2022-09-25T09:38:06.302Z,3.93
2022-09-25T09:41:02.654Z,4.90
2022-09-25T09:44:04.984Z,5.13
2022-09-25T09:46:40.537Z,6.13
2022-09-25T09:49:27.869Z,5.60
2022-09-25T09:52:09.068Z,4.73
2022-09-25T09:55:13.495Z,4.80
2022-09-25T09:57:50.144Z,4.47
2022-09-25T10:00:20.894Z,4.60
2022-09-25T10:03:20.005Z,5.07
2022-09-25T10:05:50.771Z,5.83
2022-09-25T10:08:19.307Z,4.97
2022-09-25T10:10:55.800Z,5.53
2022-09-25T10:13:35.091Z,6.17
2022-09-25T10:16:13.612Z,5.33
2022-09-25T10:19:20.078Z,4.43
2022-09-25T10:21:56.371Z,5.50
2022-09-25T10:24:46.773Z,5.10
2022-09-25T10:27:37.386Z,4.87
2022-09-25T10:30:11.805Z,6.60
2022-09-25T10:32:43.475Z,6.23
2022-09-25T10:35:23.941Z,4.87
2022-09-25T10:37:57.322Z,4.27
2022-09-25T10:40:28.789Z,5.00
2022-09-25T10:43:06.339Z,4.57
2022-09-25T10:45:37.336Z,3.80
2022-09-25T10:48:51.562Z,4.93
2022-09-25T10:51:22.066Z,4.60
2022-09-25T10:54:11.657Z,7.00
2022-09-25T10:56:40.758Z,6.30
2022-09-25T10:59:20.869Z,5.23
2022-09-25T11:01:51.904Z,5.40
2022-09-25T11:04:28.971Z,5.10
2022-09-25T11:07:01.228Z,5.27
2022-09-25T11:09:33.176Z,4.80
2022-09-25T11:12:26.755Z,6.20
2022-09-25T11:15:03.296Z,7.00
2022-09-25T11:17:44.823Z,5.07
2022-09-25T11:20:33.574Z,5.17
2022-09-25T11:23:27.723Z,7.50
2022-09-25T11:26:32.273Z,8.03
2022-09-25T11:29:11.372Z,5.73
2022-09-25T11:32:11.681Z,6.80
2022-09-25T11:35:20.299Z,8.40
2022-09-25T11:38:04.000Z,6.37
2022-09-25T11:40:57.640Z,6.90
2022-09-25T11:43:45.643Z,6.33
2022-09-25T11:46:25.532Z,6.80
2022-09-25T11:49:20.739Z,8.33
2022-09-25T11:51:58.119Z,7.43
2022-09-25T11:54:34.206Z,6.50
2022-09-25T11:57:28.542Z,7.83
2022-09-25T12:00:22.455Z,6.50
2022-09-25T12:03:09.695Z,7.00
2022-09-25T12:05:41.170Z,7.50
2022-09-25T12:08:33.981Z,6.73
2022-09-25T12:11:28.037Z,6.00
2022-09-25T12:14:21.062Z,7.63
2022-09-25T12:17:01.735Z,8.47
2022-09-25T12:19:49.075Z,7.27
2022-09-25T12:22:36.662Z,6.63
2022-09-25T12:25:27.371Z,7.23
2022-09-25T12:28:30.773Z,8.73
2022-09-25T12:31:28.480Z,8.20
2022-09-25T12:34:10.245Z,7.17
2022-09-25T12:36:48.409Z,7.63
2022-09-25T12:39:41.349Z,7.20
2022-09-25T12:42:18.138Z,6.13
2022-09-25T12:44:50.154Z,7.30
2022-09-25T12:47:41.279Z,6.50
2022-09-25T12:50:20.028Z,5.70
2022-09-25T12:52:58.266Z,7.53
2022-09-25T12:55:59.193Z,6.17
2022-09-25T12:58:27.579Z,6.13
2022-09-25T13:01:08.139Z,6.30
2022-09-25T13:03:47.249Z,5.80
2022-09-25T13:06:25.830Z,11.17
2022-09-25T13:09:07.762Z,7.13
2022-09-25T13:11:36.125Z,6.20
2022-09-25T13:14:16.794Z,8.20
2022-09-25T13:16:47.474Z,7.20
2022-09-25T13:19:28.145Z,5.40
2022-09-25T13:22:35.776Z,6.37
2022-09-25T13:25:16.139Z,7.30
2022-09-25T13:27:48.271Z,7.47
2022-09-25T13:30:28.645Z,8.23
2022-09-25T13:33:04.032Z,7.37
2022-09-25T13:35:33.991Z,7.60
2022-09-25T13:38:41.355Z,10.73
2022-09-25T13:41:14.857Z,7.47
2022-09-25T13:43:43.231Z,10.30
2022-09-25T13:46:22.320Z,7.27
2022-09-25T13:48:53.855Z,7.10
2022-09-25T13:51:22.221Z,9.20
2022-09-25T13:54:05.534Z,8.90
2022-09-25T13:56:35.359Z,9.57
2022-09-25T13:59:20.888Z,7.80
2022-09-25T14:02:16.919Z,13.10
2022-09-25T14:04:49.526Z,9.40
2022-09-25T14:07:25.751Z,8.43
2022-09-25T14:09:57.498Z,10.03
2022-09-25T14:12:43.172Z,9.30
2022-09-25T14:15:35.880Z,9.03
2022-09-25T14:18:09.110Z,7.77
2022-09-25T14:20:41.779Z,8.40
2022-09-25T14:23:23.683Z,8.13
2022-09-25T14:26:19.030Z,10.07
2022-09-25T14:28:48.700Z,10.37
2022-09-25T14:31:38.392Z,9.93
2022-09-25T14:34:21.835Z,9.27
2022-09-25T14:37:02.676Z,10.43
2022-09-25T14:39:41.751Z,10.30
2022-09-25T14:42:31.929Z,14.50
2022-09-25T14:45:32.427Z,12.00
2022-09-25T14:48:03.826Z,9.77
2022-09-25T14:50:39.414Z,14.10
2022-09-25T14:53:12.632Z,9.83
2022-09-25T14:55:47.390Z,10.63
2022-09-25T14:58:20.368Z,10.83
2022-09-25T15:00:53.530Z,9.97
2022-09-25T15:03:31.984Z,9.60
2022-09-25T15:06:04.999Z,10.93
2022-09-25T15:08:39.974Z,9.93
2022-09-25T15:11:13.079Z,11.70
2022-09-25T15:13:41.811Z,8.73
2022-09-25T15:16:56.398Z,11.00
2022-09-25T15:19:29.351Z,10.83
2022-09-25T15:21:58.004Z,10.40
2022-09-25T15:24:31.731Z,10.00
2022-09-25T15:27:04.638Z,8.63
2022-09-25T15:29:42.628Z,9.27
2022-09-25T15:32:26.242Z,9.70
2022-09-25T15:35:26.831Z,10.97
2022-09-25T15:38:14.574Z,8.27
2022-09-25T15:40:43.119Z,9.50
2022-09-25T15:43:19.073Z,8.50
2022-09-25T15:45:59.156Z,9.20
2022-09-25T15:48:33.821Z,11.17
2022-09-25T15:51:07.874Z,9.43
2022-09-25T15:53:44.982Z,8.20
2022-09-25T15:56:13.433Z,9.10
2022-09-25T15:58:51.161Z,12.13
2022-09-25T16:01:42.750Z,8.17
2022-09-25T16:04:39.133Z,9.43
2022-09-25T16:07:33.072Z,8.07
2022-09-25T16:10:10.594Z,12.23
2022-09-25T16:12:43.050Z,10.17
2022-09-25T16:15:30.636Z,9.13
2022-09-25T16:18:20.835Z,7.13
2022-09-25T16:20:57.363Z,11.90
2022-09-25T16:23:30.859Z,8.53
2022-09-25T16:25:59.631Z,8.50
2022-09-25T16:28:31.922Z,7.97
2022-09-25T16:31:11.451Z,9.87
2022-09-25T16:33:44.235Z,7.80
2022-09-25T16:36:19.474Z,7.93
2022-09-25T16:39:10.385Z,6.90
2022-09-25T16:41:49.278Z,8.00
2022-09-25T16:44:33.013Z,7.83
2022-09-25T16:47:01.492Z,8.23
2022-09-25T16:49:29.995Z,7.00
2022-09-25T16:51:58.432Z,10.00
2022-09-25T16:54:34.609Z,6.90
2022-09-25T16:57:03.602Z,7.73
2022-09-25T16:59:32.501Z,6.47
2022-09-25T17:02:09.678Z,7.50
2022-09-25T17:04:39.532Z,8.03
2022-09-25T17:07:09.421Z,7.50
2022-09-25T17:09:37.907Z,6.77
2022-09-25T17:12:23.841Z,5.83
2022-09-25T17:14:52.474Z,6.57
2022-09-25T17:17:22.810Z,6.73
2022-09-25T17:19:51.738Z,8.37
2022-09-25T17:22:20.246Z,6.10
2022-09-25T17:24:48.737Z,7.43
2022-09-25T17:27:17.861Z,7.60
2022-09-25T17:29:47.590Z,6.47
2022-09-25T17:32:18.277Z,8.10
2022-09-25T17:34:48.016Z,5.00
2022-09-25T17:37:16.668Z,6.47
2022-09-25T17:39:45.501Z,8.20
2022-09-25T17:42:14.175Z,6.70
2022-09-25T17:44:44.592Z,5.93
2022-09-25T17:47:14.015Z,7.87
2022-09-25T17:49:42.848Z,8.67
2022-09-25T17:52:17.787Z,8.00
2022-09-25T17:54:46.635Z,7.93
2022-09-25T17:57:14.998Z,8.87
2022-09-25T17:59:43.414Z,5.87
2022-09-25T18:02:17.877Z,9.70
2022-09-25T18:04:46.434Z,7.30
2022-09-25T18:07:16.016Z,9.30
2022-09-25T18:09:44.624Z,5.10
2022-09-25T18:12:13.193Z,5.73
2022-09-25T18:14:41.577Z,5.53
2022-09-25T18:17:10.044Z,8.13
2022-09-25T18:19:56.769Z,7.40
2022-09-25T18:22:26.422Z,5.20
2022-09-25T18:24:58.442Z,5.10
2022-09-25T18:27:29.851Z,5.20
2022-09-25T18:29:59.028Z,6.13
2022-09-25T18:32:27.752Z,14.90
2022-09-25T18:34:56.233Z,6.53
2022-09-25T18:37:24.654Z,6.37
2022-09-25T18:39:53.031Z,7.53
2022-09-25T18:42:21.672Z,6.13
2022-09-25T18:44:50.882Z,5.20
2022-09-25T18:47:19.322Z,5.50
2022-09-25T18:49:47.805Z,5.53
2022-09-25T18:52:16.567Z,6.23
2022-09-25T18:54:45.036Z,8.80
2022-09-25T18:57:13.870Z,6.57
2022-09-25T18:59:42.855Z,7.17
2022-09-25T19:02:26.668Z,7.60
2022-09-25T19:04:56.975Z,8.17
2022-09-25T19:07:28.092Z,5.97
2022-09-25T19:09:59.005Z,7.20
2022-09-25T19:12:27.546Z,6.60
2022-09-25T19:14:55.999Z,5.90
2022-09-25T19:17:24.450Z,6.37
2022-09-25T19:19:52.842Z,5.93
2022-09-25T19:22:22.690Z,9.13
2022-09-25T19:24:53.444Z,5.83
2022-09-25T19:27:22.009Z,5.00
2022-09-25T19:29:50.525Z,7.47
2022-09-25T19:32:19.861Z,9.07
2022-09-25T19:34:48.416Z,9.40
2022-09-25T19:37:16.929Z,5.90
2022-09-25T19:40:03.786Z,6.40
2022-09-25T19:42:34.401Z,5.57
2022-09-25T19:45:02.991Z,6.37
2022-09-25T19:47:31.470Z,9.17
2022-09-25T19:49:59.866Z,6.73
2022-09-25T19:52:28.310Z,5.43
2022-09-25T19:54:56.715Z,7.67
2022-09-25T19:57:25.211Z,6.63
2022-09-25T19:59:53.600Z,7.23
2022-09-25T20:02:22.072Z,6.23
2022-09-25T20:04:50.507Z,5.80
2022-09-25T20:07:19.267Z,6.23
2022-09-25T20:09:48.314Z,6.00
2022-09-25T20:12:16.790Z,5.90
2022-09-25T20:14:45.339Z,6.73
2022-09-25T20:17:13.681Z,6.87
2022-09-25T20:19:42.608Z,7.80
2022-09-25T20:22:11.206Z,7.80
2022-09-25T20:24:39.647Z,7.03
2022-09-25T20:27:08.825Z,5.70
2022-09-25T20:29:37.205Z,8.40
2022-09-25T20:32:05.630Z,5.50
2022-09-25T20:34:34.164Z,32.10
2022-09-25T20:37:04.428Z,7.20
2022-09-25T20:39:32.776Z,6.50
2022-09-25T20:42:01.226Z,6.03
2022-09-25T20:44:29.627Z,6.90
2022-09-25T20:46:57.978Z,8.10
2022-09-25T20:49:26.602Z,9.43
2022-09-25T20:51:54.936Z,8.53
2022-09-25T20:54:26.215Z,6.93
2022-09-25T20:56:54.860Z,10.63
2022-09-25T20:59:23.249Z,26.20
2022-09-25T21:01:51.739Z,8.80
2022-09-25T21:04:20.300Z,8.30
2022-09-25T21:06:48.670Z,5.90
2022-09-25T21:09:27.597Z,15.33
2022-09-25T21:11:56.812Z,11.03
2022-09-25T21:14:29.719Z,12.80
2022-09-25T21:16:58.454Z,7.90
2022-09-25T21:19:28.823Z,13.20
2022-09-25T21:21:57.329Z,9.80
2022-09-25T21:24:25.771Z,10.07
2022-09-25T21:26:54.149Z,10.13
2022-09-25T21:29:22.826Z,32.37
2022-09-25T21:31:51.247Z,17.60
2022-09-25T21:34:20.567Z,34.07
2022-09-25T21:36:50.114Z,64.57
2022-09-25T21:39:20.846Z,14.13
2022-09-25T21:41:49.883Z,8.03
2022-09-25T21:44:21.353Z,17.67
2022-09-25T21:46:49.725Z,21.70
2022-09-25T21:49:21.882Z,32.03
2022-09-25T21:51:51.979Z,20.40
2022-09-25T21:54:20.417Z,28.97
2022-09-25T21:56:49.897Z,17.10
2022-09-25T21:59:18.829Z,25.70
2022-09-25T22:01:47.403Z,16.60
2022-09-25T22:04:16.562Z,7.07
2022-09-25T22:06:47.859Z,13.60
2022-09-25T22:09:22.072Z,18.83
2022-09-25T22:11:51.646Z,10.83
2022-09-25T22:14:22.635Z,16.50
2022-09-25T22:16:53.659Z,26.63
2022-09-25T22:19:26.623Z,49.27
2022-09-25T22:21:57.085Z,10.30
2022-09-25T22:24:25.895Z,11.23
2022-09-25T22:26:55.823Z,16.30
2022-09-25T22:29:24.703Z,16.97
2022-09-25T22:31:53.155Z,12.93
2022-09-25T22:34:27.336Z,30.60
2022-09-25T22:36:59.842Z,48.73
2022-09-25T22:39:29.953Z,74.93
2022-09-25T22:41:58.728Z,8.17
2022-09-25T22:44:27.654Z,47.23
2022-09-25T22:46:56.128Z,28.37
2022-09-25T22:49:24.579Z,14.10
2022-09-25T22:51:53.056Z,12.60
2022-09-25T22:54:21.626Z,24.70
2022-09-25T22:56:50.022Z,71.00
2022-09-25T22:59:18.839Z,60.70
2022-09-25T23:01:51.345Z,29.20
2022-09-25T23:04:22.240Z,20.53
2022-09-25T23:06:51.081Z,15.77
2022-09-25T23:09:22.744Z,47.80
2022-09-25T23:11:51.129Z,67.80
2022-09-25T23:14:23.417Z,66.57
2022-09-25T23:16:53.711Z,7.70
2022-09-25T23:19:23.093Z,74.40
2022-09-25T23:21:53.645Z,79.50
2022-09-25T23:24:22.983Z,53.10
2022-09-25T23:26:51.797Z,31.20
2022-09-25T23:29:24.108Z,53.07
2022-09-25T23:31:53.725Z,59.17
2022-09-25T23:34:22.329Z,51.83
2022-09-25T23:36:50.773Z,31.77
2022-09-25T23:39:21.062Z,18.93
2022-09-25T23:41:50.075Z,69.33
2022-09-25T23:44:18.723Z,23.63
2022-09-25T23:46:47.238Z,60.90
2022-09-25T23:49:15.977Z,25.33
2022-09-25T23:51:44.473Z,30.93
2022-09-25T23:54:13.668Z,62.03
2022-09-25T23:56:42.091Z,44.43
2022-09-25T23:59:12.682Z,52.37
